Time;durP1;ratioP1;P1;durP2;ratioP2;P2;SDS_P1;SDS_P2;PMS_P1;PMS_P2;Temp;Humidity;BMP_temperature;BMP_pressure;BME280_temperature;BME280_humidity;BME280_pressure;Samples;Min_cycle;Max_cycle;Signal;HPM_P1;HPM_P2
2023/09/23 04:02:21;;;;;;;;;;;11.10;99.90;;;;;;5162847;23;20292;-79
2023/09/23 04:04:53;;;;;;;;;;;11.10;99.90;;;;;;4995994;28;19926;-78
2023/09/23 04:07:22;;;;;;;;;;;11.10;99.90;;;;;;4996506;28;19972;-78
2023/09/23 04:09:47;;;;;;;;;;;11.10;99.90;;;;;;4996109;28;19921;-79
2023/09/23 04:12:13;;;;;;;;;;;11.20;99.90;;;;;;4979486;28;19969;-80
2023/09/23 04:14:39;;;;;;;;;;;11.10;99.90;;;;;;4976651;28;19922;-78
2023/09/23 04:17:05;;;;;;;;;;;11.10;99.90;;;;;;4994898;28;19922;-78
2023/09/23 04:19:31;;;;;;;;;;;11.10;99.90;;;;;;4980219;28;19929;-80
2023/09/23 04:21:57;;;;;;;;;;;11.10;99.90;;;;;;4980504;28;19976;-80
2023/09/23 04:24:23;;;;;;;;;;;11.10;99.90;;;;;;4980032;28;20021;-80
2023/09/23 04:26:49;;;;;;;;;;;11.10;99.90;;;;;;4980185;28;19972;-80
2023/09/23 04:29:15;;;;;;;;;;;11.10;99.90;;;;;;4980413;28;19969;-80
2023/09/23 04:31:40;;;;;;;;;;;11.10;99.90;;;;;;4980076;28;19921;-79
2023/09/23 04:34:06;;;;;;;;;;;11.00;99.90;;;;;;4964339;28;19926;-80
2023/09/23 04:36:32;;;;;;;;;;;11.00;99.90;;;;;;4979848;28;19929;-79
2023/09/23 04:38:57;;;;;;;;;;;11.00;99.90;;;;;;4997207;28;20030;-79
2023/09/23 04:41:23;;;;;;;;;;;11.00;99.90;;;;;;4980050;28;19936;-79
2023/09/23 04:43:48;;;;;;;;;;;11.00;99.90;;;;;;4979760;28;19929;-78
2023/09/23 04:46:16;;;;;;;;;;;11.00;99.90;;;;;;4963527;28;19999;-76
2023/09/23 04:48:42;;;;;;;;;;;11.00;99.90;;;;;;4979938;28;19922;-77
2023/09/23 04:51:08;;;;;;;;;;;10.90;99.90;;;;;;4996973;28;19928;-80
2023/09/23 04:53:34;;;;;;;;;;;11.00;99.90;;;;;;4979480;28;19922;-78
2023/09/23 04:56:06;;;;;;;;;;;11.00;99.90;;;;;;4979820;28;19926;-79
2023/09/23 04:58:32;;;;;;;;;;;10.90;99.90;;;;;;4979496;28;19922;-80
2023/09/23 05:00:59;;;;;;;;;;;11.00;99.90;;;;;;4979207;28;19968;-79
2023/09/23 05:03:24;;;;;;;;;;;11.00;99.90;;;;;;4979294;28;20420;-80
2023/09/23 05:05:50;;;;;;;;;;;11.00;99.90;;;;;;4996733;28;19969;-78
2023/09/23 05:08:15;;;;;;;;;;;11.00;99.90;;;;;;4979294;28;20411;-78
2023/09/23 05:10:41;;;;;;;;;;;11.00;99.90;;;;;;4979420;28;19922;-78
2023/09/23 05:13:08;;;;;;;;;;;11.00;99.90;;;;;;4996930;28;19926;-77
2023/09/23 05:15:33;;;;;;;;;;;11.00;99.90;;;;;;4980018;28;20250;-79
2023/09/23 05:17:59;;;;;;;;;;;11.00;99.90;;;;;;4996567;28;19929;-81
2023/09/23 05:20:25;;;;;;;;;;;11.00;99.90;;;;;;4996423;28;20285;-78
2023/09/23 05:22:51;;;;;;;;;;;11.10;99.90;;;;;;4962797;28;19921;-79
2023/09/23 05:25:18;;;;;;;;;;;11.00;99.90;;;;;;4978970;28;19965;-78
2023/09/23 05:27:43;;;;;;;;;;;11.00;99.90;;;;;;4978659;28;19929;-77
2023/09/23 05:30:12;;;;;;;;;;;11.00;99.90;;;;;;4978229;28;19922;-79
2023/09/23 05:32:38;;;;;;;;;;;11.00;99.90;;;;;;4978770;28;20400;-78
2023/09/23 05:35:05;;;;;;;;;;;11.00;99.90;;;;;;4978645;28;19969;-77
2023/09/23 05:37:31;;;;;;;;;;;11.00;99.90;;;;;;4979020;28;20012;-79
2023/09/23 05:39:57;;;;;;;;;;;11.00;99.90;;;;;;4978622;28;20415;-79
2023/09/23 05:42:24;;;;;;;;;;;11.00;99.90;;;;;;4978789;28;19921;-77
2023/09/23 05:44:49;;;;;;;;;;;11.00;99.90;;;;;;4962326;28;19933;-79
2023/09/23 05:47:15;;;;;;;;;;;11.00;99.90;;;;;;4978478;28;19926;-79
2023/09/23 05:49:42;;;;;;;;;;;11.10;99.90;;;;;;4995967;28;20340;-80
2023/09/23 05:52:08;;;;;;;;;;;11.10;99.90;;;;;;4962246;28;19972;-80
2023/09/23 05:54:34;;;;;;;;;;;11.20;99.90;;;;;;4978356;28;19922;-78
2023/09/23 05:56:59;;;;;;;;;;;11.20;99.90;;;;;;4978431;28;19936;-78
2023/09/23 05:59:25;;;;;;;;;;;11.20;99.90;;;;;;4978412;28;20004;-81
2023/09/23 06:01:50;;;;;;;;;;;11.20;99.90;;;;;;4961974;28;20017;-78
2023/09/23 06:04:16;;;;;;;;;;;11.20;99.90;;;;;;4978115;28;19952;-80
2023/09/23 06:06:41;;;;;;;;;;;11.30;99.90;;;;;;4978166;28;19926;-80
2023/09/23 06:09:07;;;;;;;;;;;11.30;99.90;;;;;;4978105;28;20292;-79
2023/09/23 06:11:33;;;;;;;;;;;11.30;99.90;;;;;;4978661;28;19921;-79
2023/09/23 06:13:59;;;;;;;;;;;11.30;99.90;;;;;;4978061;28;19929;-79
2023/09/23 06:16:24;;;;;;;;;;;11.40;99.90;;;;;;4978271;28;19922;-79
2023/09/23 06:18:50;;;;;;;;;;;11.40;99.90;;;;;;4978233;28;19921;-80
2023/09/23 06:21:16;;;;;;;;;;;11.40;99.90;;;;;;4961847;28;19926;-80
2023/09/23 06:23:41;;;;;;;;;;;11.40;99.90;;;;;;4977889;28;19973;-79
2023/09/23 06:26:08;;;;;;;;;;;11.40;99.90;;;;;;4962072;28;19973;-80
2023/09/23 06:28:34;;;;;;;;;;;11.40;99.90;;;;;;4977784;28;19922;-80
2023/09/23 06:30:59;;;;;;;;;;;11.40;99.90;;;;;;4995102;28;19922;-80
2023/09/23 06:33:25;;;;;;;;;;;11.50;99.90;;;;;;4978034;28;19972;-79
2023/09/23 06:35:50;;;;;;;;;;;11.50;99.90;;;;;;4977950;28;20433;-79
2023/09/23 06:38:16;;;;;;;;;;;11.50;99.90;;;;;;4977567;28;20416;-80
2023/09/23 06:40:42;;;;;;;;;;;11.50;99.90;;;;;;4976584;28;19921;-79
2023/09/23 06:43:07;;;;;;;;;;;11.50;99.90;;;;;;4977521;28;19929;-81
2023/09/23 06:45:33;;;;;;;;;;;11.50;99.90;;;;;;4977553;28;20375;-79
2023/09/23 06:47:59;;;;;;;;;;;11.60;99.90;;;;;;4977695;28;19922;-78
2023/09/23 06:50:25;;;;;;;;;;;11.60;99.90;;;;;;4977629;28;19922;-78
2023/09/23 06:52:50;;;;;;;;;;;11.70;99.90;;;;;;4977327;28;19921;-81
2023/09/23 06:55:16;;;;;;;;;;;11.70;99.90;;;;;;4977361;28;19976;-79
2023/09/23 06:57:42;;;;;;;;;;;11.80;99.90;;;;;;4977253;28;19921;-79
2023/09/23 07:00:08;;;;;;;;;;;11.80;99.90;;;;;;4977268;28;20289;-78
2023/09/23 07:02:33;;;;;;;;;;;11.80;99.90;;;;;;4961029;28;20285;-78
2023/09/23 07:04:59;;;;;;;;;;;11.80;99.90;;;;;;4977159;28;19926;-79
2023/09/23 07:07:25;;;;;;;;;;;11.90;99.90;;;;;;4977474;28;19953;-78
2023/09/23 07:09:51;;;;;;;;;;;11.90;99.90;;;;;;4977238;28;20345;-80
2023/09/23 07:12:16;;;;;;;;;;;11.90;99.90;;;;;;4977049;28;19925;-79
2023/09/23 07:14:42;;;;;;;;;;;12.00;99.90;;;;;;4961070;28;20032;-79
2023/09/23 07:17:07;;;;;;;;;;;12.00;99.90;;;;;;4977375;28;19946;-80
2023/09/23 07:19:34;;;;;;;;;;;12.00;99.90;;;;;;4977028;28;19922;-80
2023/09/23 07:21:59;;;;;;;;;;;12.10;99.90;;;;;;4976836;28;19925;-80
2023/09/23 07:24:26;;;;;;;;;;;12.10;99.90;;;;;;4976919;28;20348;-81
2023/09/23 07:27:00;;;;;;;;;;;12.20;99.90;;;;;;4977048;28;19928;-83
2023/09/23 07:29:26;;;;;;;;;;;12.30;99.90;;;;;;4961343;28;19926;-82
2023/09/23 07:31:54;;;;;;;;;;;12.40;99.90;;;;;;4994438;28;20377;-79
2023/09/23 07:34:20;;;;;;;;;;;12.50;99.90;;;;;;4977267;28;19929;-81
2023/09/23 07:36:46;;;;;;;;;;;12.50;99.90;;;;;;4977286;28;20409;-80
2023/09/23 07:39:12;;;;;;;;;;;12.60;99.90;;;;;;4976667;28;20396;-80
2023/09/23 07:41:38;;;;;;;;;;;12.70;99.90;;;;;;4975036;28;19928;-80
2023/09/23 07:44:04;;;;;;;;;;;12.70;99.90;;;;;;4975815;28;19926;-79
2023/09/23 07:46:29;;;;;;;;;;;12.80;99.90;;;;;;4977150;28;19968;-79
2023/09/23 07:48:55;;;;;;;;;;;12.80;99.90;;;;;;4976770;28;20020;-79
2023/09/23 07:51:21;;;;;;;;;;;12.90;99.90;;;;;;4975828;28;19961;-79
2023/09/23 07:53:46;;;;;;;;;;;12.90;99.90;;;;;;4980451;28;19988;-79
2023/09/23 07:56:12;;;;;;;;;;;12.90;99.90;;;;;;4980542;28;19957;-79
2023/09/23 07:58:37;;;;;;;;;;;13.00;99.90;;;;;;4977706;28;19929;-78
2023/09/23 08:01:03;;;;;;;;;;;13.00;99.90;;;;;;4980079;28;19922;-77
2023/09/23 08:03:29;;;;;;;;;;;13.10;99.90;;;;;;4964307;28;20020;-77
2023/09/23 08:05:55;;;;;;;;;;;13.10;99.90;;;;;;4964292;28;19976;-78
2023/09/23 08:08:20;;;;;;;;;;;13.20;99.90;;;;;;4980657;28;19979;-78
2023/09/23 08:10:49;;;;;;;;;;;13.20;99.90;;;;;;4996361;28;20377;-77
2023/09/23 08:13:15;;;;;;;;;;;13.30;99.90;;;;;;4964231;28;19922;-77
2023/09/23 08:15:41;;;;;;;;;;;13.30;99.90;;;;;;4964095;28;19968;-77
2023/09/23 08:18:06;;;;;;;;;;;13.40;99.90;;;;;;4980190;28;19926;-76
2023/09/23 08:20:32;;;;;;;;;;;13.40;99.90;;;;;;4980254;28;20292;-77
2023/09/23 08:22:57;;;;;;;;;;;13.40;99.90;;;;;;4980259;28;20300;-77
2023/09/23 08:25:23;;;;;;;;;;;13.50;99.90;;;;;;4997706;28;20403;-77
2023/09/23 08:27:50;;;;;;;;;;;13.60;99.90;;;;;;4997634;28;20008;-78
2023/09/23 08:30:16;;;;;;;;;;;13.60;99.90;;;;;;4979773;28;19929;-77
2023/09/23 08:32:41;;;;;;;;;;;13.70;99.90;;;;;;4979851;28;19952;-77
2023/09/23 08:35:07;;;;;;;;;;;13.80;99.90;;;;;;4979832;28;19922;-78
2023/09/23 08:37:33;;;;;;;;;;;13.80;99.90;;;;;;4979697;28;19922;-77
2023/09/23 08:39:59;;;;;;;;;;;13.90;99.90;;;;;;4980704;28;19926;-78
2023/09/23 08:42:25;;;;;;;;;;;14.00;99.90;;;;;;4979515;28;19929;-80
2023/09/23 08:44:51;;;;;;;;;;;14.10;99.90;;;;;;4979561;28;19925;-78
2023/09/23 08:47:17;;;;;;;;;;;14.10;99.90;;;;;;4963516;28;19961;-77
2023/09/23 08:49:43;;;;;;;;;;;14.20;99.90;;;;;;4979623;28;19926;-78
2023/09/23 08:52:09;;;;;;;;;;;14.10;99.90;;;;;;4979405;28;19921;-80
2023/09/23 08:54:35;;;;;;;;;;;14.20;99.90;;;;;;4979534;28;19926;-77
2023/09/23 08:57:00;;;;;;;;;;;14.20;99.90;;;;;;4963312;28;19968;-80
2023/09/23 08:59:30;;;;;;;;;;;14.30;99.90;;;;;;4979632;28;19996;-77
2023/09/23 09:01:56;;;;;;;;;;;14.30;99.90;;;;;;4996659;28;19928;-78
2023/09/23 09:04:21;;;;;;;;;;;14.30;99.90;;;;;;4978409;28;19925;-79
2023/09/23 09:06:50;;;;;;;;;;;14.40;99.90;;;;;;4979464;28;19922;-80
2023/09/23 09:09:16;;;;;;;;;;;14.50;99.90;;;;;;4979670;28;19926;-79
2023/09/23 09:11:44;;;;;;;;;;;14.60;99.90;;;;;;4979334;28;19944;-78
2023/09/23 09:14:10;;;;;;;;;;;14.70;99.90;;;;;;5012039;28;19925;-81
2023/09/23 09:16:36;;;;;;;;;;;14.90;99.90;;;;;;4979187;28;20386;-78
2023/09/23 09:19:02;;;;;;;;;;;15.10;99.90;;;;;;4979131;28;19990;-82
2023/09/23 09:21:32;;;;;;;;;;;15.20;99.90;;;;;;4996922;28;19929;-78
2023/09/23 09:23:58;;;;;;;;;;;15.40;99.90;;;;;;4996677;28;19933;-80
2023/09/23 09:26:24;;;;;;;;;;;15.40;99.90;;;;;;4978889;28;19972;-82
2023/09/23 09:28:50;;;;;;;;;;;15.40;99.90;;;;;;4962811;28;19926;-76
2023/09/23 09:31:17;;;;;;;;;;;15.30;99.90;;;;;;4978920;28;19928;-78
2023/09/23 09:33:46;;;;;;;;;;;15.20;99.90;;;;;;4979378;28;19948;-77
2023/09/23 09:36:13;;;;;;;;;;;15.20;99.90;;;;;;4978813;28;19929;-77
2023/09/23 09:38:41;;;;;;;;;;;15.00;99.90;;;;;;4979080;28;19986;-78
2023/09/23 09:41:11;;;;;;;;;;;15.00;99.90;;;;;;4962750;28;19922;-78
2023/09/23 09:43:36;;;;;;;;;;;15.00;99.90;;;;;;4996338;28;19979;-74
2023/09/23 09:46:08;;;;;;;;;;;15.00;99.90;;;;;;4995927;28;20008;-85
2023/09/23 09:48:38;;;;;;;;;;;15.00;99.90;;;;;;4996761;28;19921;-85
2023/09/23 09:51:07;;;;;;;;;;;15.20;99.90;;;;;;4996893;28;19921;-79
2023/09/23 09:53:33;;;;;;;;;;;15.30;99.90;;;;;;4978292;28;19929;-81
2023/09/23 09:55:59;;;;;;;;;;;15.20;99.90;;;;;;4978575;28;20036;-80
2023/09/23 09:58:34;;;;;;;;;;;15.30;99.90;;;;;;4962278;28;20433;-82
2023/09/23 10:01:01;;;;;;;;;;;15.20;99.90;;;;;;4955662;28;19929;-78
2023/09/23 10:03:27;;;;;;;;;;;15.30;99.90;;;;;;4958970;28;19930;-81
2023/09/23 10:05:58;;;;;;;;;;;15.50;99.90;;;;;;4958815;28;19976;-82
2023/09/23 10:08:26;;;;;;;;;;;15.60;99.90;;;;;;4960277;28;20265;-80
2023/09/23 10:10:59;;;;;;;;;;;15.70;99.90;;;;;;4958935;28;20376;-81
2023/09/23 10:13:29;;;;;;;;;;;15.70;99.90;;;;;;4958848;28;19922;-80
2023/09/23 10:16:04;;;;;;;;;;;15.70;99.90;;;;;;4958837;28;20322;-78
2023/09/23 10:18:37;;;;;;;;;;;15.70;99.90;;;;;;4958890;28;19922;-80
2023/09/23 10:21:03;;;;;;;;;;;15.80;99.90;;;;;;4958646;28;19923;-76
2023/09/23 10:23:32;;;;;;;;;;;15.90;99.90;;;;;;4959551;28;19926;-83
2023/09/23 10:25:58;;;;;;;;;;;16.00;99.90;;;;;;4958816;28;19929;-79
2023/09/23 10:28:24;;;;;;;;;;;16.10;99.90;;;;;;4958751;28;20028;-80
2023/09/23 10:31:00;;;;;;;;;;;16.20;99.90;;;;;;4958410;28;19929;-77
2023/09/23 10:33:27;;;;;;;;;;;16.40;99.90;;;;;;4958455;28;19922;-81
2023/09/23 10:35:58;;;;;;;;;;;16.40;99.90;;;;;;4958475;28;20036;-79
2023/09/23 10:38:24;;;;;;;;;;;16.40;99.90;;;;;;4942891;28;20251;-79
2023/09/23 10:40:54;;;;;;;;;;;16.40;99.90;;;;;;4958519;28;20025;-81
2023/09/23 10:43:21;;;;;;;;;;;16.30;99.90;;;;;;4958402;28;19933;-81
2023/09/23 10:45:57;;;;;;;;;;;16.50;99.90;;;;;;4943020;28;19926;-83
2023/09/23 10:48:23;;;;;;;;;;;16.50;99.90;;;;;;4958557;28;20013;-79
2023/09/23 10:50:51;;;;;;;;;;;16.50;99.90;;;;;;4958128;28;20461;-78
2023/09/23 10:53:16;;;;;;;;;;;16.40;99.90;;;;;;4958309;28;19926;-77
2023/09/23 10:55:42;;;;;;;;;;;16.40;99.90;;;;;;4958340;28;19929;-79
2023/09/23 10:58:08;;;;;;;;;;;16.30;99.90;;;;;;4958024;28;19923;-76
2023/09/23 11:00:34;;;;;;;;;;;16.40;99.90;;;;;;4958007;28;20054;-80
2023/09/23 11:03:16;;;;;;;;;;;16.40;99.90;;;;;;4957913;28;19922;-78
2023/09/23 11:05:43;;;;;;;;;;;16.40;99.90;;;;;;4957968;28;19961;-81
2023/09/23 11:08:10;;;;;;;;;;;16.40;99.90;;;;;;4942211;28;19976;-79
2023/09/23 11:10:39;;;;;;;;;;;16.40;99.90;;;;;;4957766;28;20397;-78
2023/09/23 11:13:05;;;;;;;;;;;16.50;99.90;;;;;;4958136;28;19922;-83
2023/09/23 11:15:31;;;;;;;;;;;16.60;99.90;;;;;;4941898;28;19922;-78
2023/09/23 11:17:57;;;;;;;;;;;16.70;99.90;;;;;;4959231;28;19933;-80
2023/09/23 11:20:32;;;;;;;;;;;16.80;99.90;;;;;;4977372;28;19929;-82
2023/09/23 11:22:58;;;;;;;;;;;17.00;99.90;;;;;;4961154;28;20016;-79
2023/09/23 11:25:24;;;;;;;;;;;17.00;99.90;;;;;;4977373;28;20393;-77
2023/09/23 11:27:50;;;;;;;;;;;17.00;99.90;;;;;;4976808;28;19925;-77
2023/09/23 11:30:16;;;;;;;;;;;17.00;99.90;;;;;;4977137;28;20266;-80
2023/09/23 11:32:41;;;;;;;;;;;17.00;99.90;;;;;;4994793;28;19972;-78
2023/09/23 11:35:07;;;;;;;;;;;17.00;99.90;;;;;;4994535;28;19928;-75
2023/09/23 11:37:33;;;;;;;;;;;17.00;99.90;;;;;;4994271;28;19922;-80
2023/09/23 11:39:58;;;;;;;;;;;16.90;99.90;;;;;;4977231;28;20346;-82
2023/09/23 11:42:24;;;;;;;;;;;16.70;99.90;;;;;;4977342;28;19922;-77
2023/09/23 11:44:50;;;;;;;;;;;16.70;99.90;;;;;;4976844;28;19926;-80
2023/09/23 11:47:17;;;;;;;;;;;16.50;99.90;;;;;;4977189;28;20029;-82
2023/09/23 11:49:44;;;;;;;;;;;16.50;99.90;;;;;;4977179;28;20309;-78
2023/09/23 11:52:12;;;;;;;;;;;16.50;99.90;;;;;;4994804;28;19922;-84
2023/09/23 11:54:42;;;;;;;;;;;16.60;99.90;;;;;;4977097;28;19922;-81
2023/09/23 11:57:08;;;;;;;;;;;16.80;99.90;;;;;;4976952;28;19922;-75
2023/09/23 11:59:34;;;;;;;;;;;17.10;99.90;;;;;;4976750;28;19922;-79
2023/09/23 12:02:00;;;;;;;;;;;17.10;99.90;;;;;;4993896;28;19929;-77
2023/09/23 12:04:26;;;;;;;;;;;17.10;99.90;;;;;;4976577;28;19926;-83
2023/09/23 12:06:51;;;;;;;;;;;17.30;99.90;;;;;;4976645;28;20017;-79
2023/09/23 12:09:17;;;;;;;;;;;17.40;99.90;;;;;;4994241;28;20020;-77
2023/09/23 12:11:43;;;;;;;;;;;17.60;99.90;;;;;;4976377;28;19925;-80
2023/09/23 12:14:09;;;;;;;;;;;17.70;99.90;;;;;;4976786;28;19921;-78
2023/09/23 12:16:34;;;;;;;;;;;17.70;99.90;;;;;;4976605;28;20317;-77
2023/09/23 12:19:00;;;;;;;;;;;17.60;99.90;;;;;;4993980;28;19922;-78
2023/09/23 12:21:25;;;;;;;;;;;17.60;99.90;;;;;;4976626;28;19928;-78
2023/09/23 12:23:58;;;;;;;;;;;17.40;99.90;;;;;;4976693;28;19925;-78
2023/09/23 12:26:24;;;;;;;;;;;17.50;99.90;;;;;;4960654;28;19977;-81
2023/09/23 12:28:50;;;;;;;;;;;17.40;99.90;;;;;;4976439;28;20399;-81
2023/09/23 12:31:15;;;;;;;;;;;17.40;99.90;;;;;;4976398;28;19976;-79
2023/09/23 12:33:41;;;;;;;;;;;17.30;99.90;;;;;;4976440;28;19973;-79
2023/09/23 12:36:07;;;;;;;;;;;17.20;99.90;;;;;;4976464;28;19957;-79
2023/09/23 12:38:32;;;;;;;;;;;17.20;99.90;;;;;;4994281;28;19941;-81
2023/09/23 12:40:58;;;;;;;;;;;17.10;99.90;;;;;;4980093;28;20284;-78
2023/09/23 12:43:23;;;;;;;;;;;17.10;99.90;;;;;;4980059;28;19930;-77
2023/09/23 12:45:50;;;;;;;;;;;17.10;99.90;;;;;;4980067;28;19922;-81
2023/09/23 12:48:15;;;;;;;;;;;17.20;99.90;;;;;;4979670;28;19928;-79
2023/09/23 12:50:41;;;;;;;;;;;17.30;99.90;;;;;;4981755;28;19922;-77
2023/09/23 12:53:06;;;;;;;;;;;17.40;99.90;;;;;;4980265;28;19961;-79
2023/09/23 12:55:32;;;;;;;;;;;17.50;99.90;;;;;;4979527;28;20019;-80
2023/09/23 12:57:58;;;;;;;;;;;17.70;99.90;;;;;;4979408;28;19921;-81
2023/09/23 13:00:24;;;;;;;;;;;17.70;99.90;;;;;;4979188;28;20008;-77
2023/09/23 13:02:50;;;;;;;;;;;17.70;99.90;;;;;;4979671;28;19976;-81
2023/09/23 13:05:15;;;;;;;;;;;17.80;99.90;;;;;;4979554;28;19926;-79
2023/09/23 13:07:41;;;;;;;;;;;17.90;99.90;;;;;;4979335;28;20351;-80
2023/09/23 13:10:09;;;;;;;;;;;18.10;99.90;;;;;;4979194;28;19980;-79
2023/09/23 13:12:34;;;;;;;;;;;18.00;99.90;;;;;;4979107;28;20008;-79
2023/09/23 13:15:00;;;;;;;;;;;17.90;99.90;;;;;;4963086;28;20384;-81
2023/09/23 13:17:26;;;;;;;;;;;17.70;99.90;;;;;;4979347;28;19922;-81
2023/09/23 13:19:51;;;;;;;;;;;17.50;99.90;;;;;;4979383;28;19922;-78
2023/09/23 13:22:17;;;;;;;;;;;17.40;99.90;;;;;;4978991;28;19925;-78
2023/09/23 13:24:42;;;;;;;;;;;17.30;99.90;;;;;;4996492;28;19933;-83
2023/09/23 13:27:08;;;;;;;;;;;17.40;99.90;;;;;;4978943;28;19922;-80
2023/09/23 13:29:34;;;;;;;;;;;17.60;99.90;;;;;;4978926;28;19921;-78
2023/09/23 13:31:59;;;;;;;;;;;17.80;99.90;;;;;;4978845;28;19928;-82
2023/09/23 13:34:25;;;;;;;;;;;17.90;99.90;;;;;;4978773;28;19921;-75
2023/09/23 13:36:50;;;;;;;;;;;17.90;99.90;;;;;;4979011;28;19965;-81
2023/09/23 13:39:16;;;;;;;;;;;17.80;99.90;;;;;;4962304;28;20444;-79
2023/09/23 13:41:42;;;;;;;;;;;17.90;99.90;;;;;;4979063;28;19945;-82
2023/09/23 13:44:08;;;;;;;;;;;18.10;99.90;;;;;;4978590;28;19926;-83
2023/09/23 13:46:34;;;;;;;;;;;18.30;99.90;;;;;;4996575;28;20008;-80
2023/09/23 13:48:59;;;;;;;;;;;18.50;99.90;;;;;;4996751;28;19961;-80
2023/09/23 13:51:25;;;;;;;;;;;18.60;99.90;;;;;;4978319;28;20289;-78
2023/09/23 13:53:50;;;;;;;;;;;18.50;99.90;;;;;;4978346;28;19929;-75
2023/09/23 13:56:16;;;;;;;;;;;18.40;99.90;;;;;;4978177;28;19929;-79
2023/09/23 13:58:42;;;;;;;;;;;18.40;99.90;;;;;;4978528;28;19969;-80
2023/09/23 14:01:08;;;;;;;;;;;18.30;99.90;;;;;;4961998;28;19929;-78
2023/09/23 14:03:34;;;;;;;;;;;18.10;99.90;;;;;;4978656;28;19926;-78
2023/09/23 14:06:00;;;;;;;;;;;17.80;99.90;;;;;;4978825;28;19929;-81
2023/09/23 14:08:26;;;;;;;;;;;17.70;99.90;;;;;;4978231;28;19926;-81
2023/09/23 14:10:55;;;;;;;;;;;17.50;99.90;;;;;;4978211;28;19929;-80
2023/09/23 14:13:21;;;;;;;;;;;17.40;99.90;;;;;;4978079;28;19922;-79
2023/09/23 14:15:46;;;;;;;;;;;17.30;99.90;;;;;;4995571;28;19932;-82
2023/09/23 14:18:12;;;;;;;;;;;17.20;99.90;;;;;;4995644;28;20001;-80
2023/09/23 14:20:37;;;;;;;;;;;17.10;99.90;;;;;;4995907;28;20013;-77
2023/09/23 14:23:03;;;;;;;;;;;17.10;99.90;;;;;;4978108;28;19929;-80
2023/09/23 14:25:29;;;;;;;;;;;17.00;99.90;;;;;;4973823;28;19926;-80
2023/09/23 14:27:54;;;;;;;;;;;16.90;99.90;;;;;;4958945;28;19928;-78
2023/09/23 14:30:20;;;;;;;;;;;16.80;99.90;;;;;;4958865;28;19922;-79
2023/09/23 14:32:45;;;;;;;;;;;16.80;99.90;;;;;;4958696;28;19922;-78
2023/09/23 14:35:11;;;;;;;;;;;16.90;99.90;;;;;;4958555;28;19929;-81
2023/09/23 14:37:38;;;;;;;;;;;16.90;99.90;;;;;;4976032;28;19926;-78
2023/09/23 14:40:04;;;;;;;;;;;16.90;99.90;;;;;;4958466;28;19961;-78
2023/09/23 14:42:29;;;;;;;;;;;16.90;99.90;;;;;;4958082;28;19976;-78
2023/09/23 14:44:55;;;;;;;;;;;16.90;99.90;;;;;;4975484;28;19933;-76
2023/09/23 14:47:20;;;;;;;;;;;16.90;99.90;;;;;;4958214;28;19992;-78
2023/09/23 14:49:47;;;;;;;;;;;17.10;99.90;;;;;;4958273;28;19926;-79
2023/09/23 14:52:12;;;;;;;;;;;17.30;99.90;;;;;;4958415;28;20363;-79
2023/09/23 14:54:38;;;;;;;;;;;17.50;99.90;;;;;;4958102;28;19929;-77
2023/09/23 14:57:03;;;;;;;;;;;17.60;99.90;;;;;;4958230;28;20326;-79
2023/09/23 14:59:29;;;;;;;;;;;17.70;99.90;;;;;;4958195;28;20334;-76
2023/09/23 15:01:54;;;;;;;;;;;17.80;99.90;;;;;;4957095;28;19926;-81
2023/09/23 15:04:20;;;;;;;;;;;17.90;99.90;;;;;;4957913;28;19977;-76
2023/09/23 15:06:45;;;;;;;;;;;17.90;99.90;;;;;;4975288;28;20354;-77
2023/09/23 15:09:12;;;;;;;;;;;17.80;99.90;;;;;;4958254;28;20318;-81
2023/09/23 15:11:38;;;;;;;;;;;17.70;99.90;;;;;;4975454;28;20323;-78
2023/09/23 15:14:03;;;;;;;;;;;17.60;99.90;;;;;;4957853;28;19922;-79
2023/09/23 15:16:29;;;;;;;;;;;17.50;99.90;;;;;;4942124;28;19929;-79
2023/09/23 15:18:55;;;;;;;;;;;17.60;99.90;;;;;;4975370;28;19976;-80
2023/09/23 15:21:21;;;;;;;;;;;17.70;99.90;;;;;;4957673;28;19926;-79
2023/09/23 15:23:46;;;;;;;;;;;17.90;99.90;;;;;;4957700;28;20013;-78
2023/09/23 15:26:12;;;;;;;;;;;17.90;99.90;;;;;;4973794;28;20396;-78
2023/09/23 15:28:39;;;;;;;;;;;18.10;99.90;;;;;;4958030;28;19922;-79
2023/09/23 15:31:05;;;;;;;;;;;18.10;99.90;;;;;;4958405;28;20282;-80
2023/09/23 15:33:33;;;;;;;;;;;18.00;99.90;;;;;;4957666;28;19922;-79
2023/09/23 15:35:58;;;;;;;;;;;18.00;99.90;;;;;;4958299;28;19977;-79
2023/09/23 15:38:24;;;;;;;;;;;18.00;99.90;;;;;;4957860;28;19984;-80
2023/09/23 15:40:49;;;;;;;;;;;17.90;99.90;;;;;;4957417;28;19922;-79
2023/09/23 15:43:16;;;;;;;;;;;17.90;99.90;;;;;;4958050;28;19928;-83
2023/09/23 15:45:45;;;;;;;;;;;17.70;99.90;;;;;;4958518;28;19973;-80
2023/09/23 15:48:10;;;;;;;;;;;17.60;99.90;;;;;;4957874;28;19922;-78
2023/09/23 15:50:36;;;;;;;;;;;17.40;99.90;;;;;;4957528;28;20016;-83
2023/09/23 15:53:02;;;;;;;;;;;17.50;99.90;;;;;;4957666;28;19930;-79
2023/09/23 15:55:28;;;;;;;;;;;17.50;99.90;;;;;;4958089;28;19977;-79
2023/09/23 15:57:54;;;;;;;;;;;17.50;99.90;;;;;;4957626;28;20334;-78
2023/09/23 16:00:20;;;;;;;;;;;17.40;99.90;;;;;;4958128;28;19922;-76
2023/09/23 16:02:45;;;;;;;;;;;17.30;99.90;;;;;;4957252;28;20377;-75
2023/09/23 16:05:12;;;;;;;;;;;17.20;99.90;;;;;;4957471;28;19977;-75
2023/09/23 16:07:38;;;;;;;;;;;17.10;99.90;;;;;;4957557;28;19922;-76
2023/09/23 16:10:04;;;;;;;;;;;17.10;99.90;;;;;;4974689;28;20351;-75
2023/09/23 16:12:29;;;;;;;;;;;17.10;99.90;;;;;;4957705;28;19922;-74
2023/09/23 16:14:56;;;;;;;;;;;17.20;99.90;;;;;;4961131;28;19972;-75
2023/09/23 16:17:22;;;;;;;;;;;17.10;99.90;;;;;;4961491;28;19930;-77
2023/09/23 16:19:49;;;;;;;;;;;17.20;99.90;;;;;;4961058;28;19922;-75
2023/09/23 16:22:15;;;;;;;;;;;17.10;99.90;;;;;;4979197;28;19922;-76
2023/09/23 16:24:41;;;;;;;;;;;17.00;99.90;;;;;;4978488;28;19973;-75
2023/09/23 16:27:06;;;;;;;;;;;16.90;99.90;;;;;;4961312;28;19926;-77
2023/09/23 16:29:32;;;;;;;;;;;16.80;99.90;;;;;;4960940;28;19949;-77
2023/09/23 16:31:57;;;;;;;;;;;16.70;99.90;;;;;;4960649;28;19922;-77
2023/09/23 16:34:23;;;;;;;;;;;16.70;99.90;;;;;;4978000;28;19922;-77
2023/09/23 16:36:49;;;;;;;;;;;16.60;99.90;;;;;;4961179;28;19928;-74
2023/09/23 16:39:15;;;;;;;;;;;16.60;99.90;;;;;;4977894;28;19922;-75
2023/09/23 16:41:43;;;;;;;;;;;16.50;99.90;;;;;;4960664;28;20382;-76
2023/09/23 16:44:09;;;;;;;;;;;16.40;99.90;;;;;;4960491;28;19926;-78
2023/09/23 16:46:34;;;;;;;;;;;16.30;99.90;;;;;;4960647;28;20017;-76
2023/09/23 16:49:00;;;;;;;;;;;16.20;99.90;;;;;;4960376;28;19923;-75
2023/09/23 16:51:26;;;;;;;;;;;16.20;99.90;;;;;;4977805;28;20335;-77
2023/09/23 16:53:52;;;;;;;;;;;16.20;99.90;;;;;;4960286;28;19929;-78
2023/09/23 16:56:17;;;;;;;;;;;16.10;99.90;;;;;;4960708;28;19972;-77
2023/09/23 16:58:43;;;;;;;;;;;16.00;99.90;;;;;;4960373;28;19926;-77
2023/09/23 17:01:08;;;;;;;;;;;15.90;99.90;;;;;;4960336;28;19929;-75
2023/09/23 17:03:34;;;;;;;;;;;15.90;99.90;;;;;;4977409;28;19926;-77
2023/09/23 17:05:59;;;;;;;;;;;15.80;99.90;;;;;;4944228;28;19923;-77
2023/09/23 17:08:25;;;;;;;;;;;15.80;99.90;;;;;;4960019;28;19973;-77
2023/09/23 17:10:50;;;;;;;;;;;15.70;99.90;;;;;;4959945;28;19961;-77
2023/09/23 17:13:16;;;;;;;;;;;15.60;99.90;;;;;;4959973;28;19923;-76
2023/09/23 17:15:41;;;;;;;;;;;15.60;99.90;;;;;;4960211;28;19929;-76
2023/09/23 17:18:07;;;;;;;;;;;15.50;99.90;;;;;;4960430;28;20374;-77
2023/09/23 17:20:33;;;;;;;;;;;15.50;99.90;;;;;;4961392;28;19922;-77
2023/09/23 17:22:59;;;;;;;;;;;15.40;99.90;;;;;;4961587;28;19961;-76
2023/09/23 17:25:25;;;;;;;;;;;15.40;99.90;;;;;;4959601;28;19926;-77
2023/09/23 17:27:51;;;;;;;;;;;15.30;99.90;;;;;;4977109;28;19976;-76
2023/09/23 17:30:17;;;;;;;;;;;15.20;99.90;;;;;;4959625;28;19926;-76
2023/09/23 17:32:42;;;;;;;;;;;15.20;99.90;;;;;;4959724;28;19922;-79
2023/09/23 17:35:08;;;;;;;;;;;15.20;99.90;;;;;;4976986;28;19922;-77
2023/09/23 17:37:33;;;;;;;;;;;15.10;99.90;;;;;;4979353;28;19965;-78
2023/09/23 17:39:59;;;;;;;;;;;15.10;99.90;;;;;;4985788;28;20251;-76
2023/09/23 17:42:25;;;;;;;;;;;15.10;99.90;;;;;;4953064;28;19922;-76
2023/09/23 17:44:51;;;;;;;;;;;15.00;99.90;;;;;;4987074;28;19932;-78
2023/09/23 17:47:16;;;;;;;;;;;14.90;99.90;;;;;;4969986;28;19925;-75
2023/09/23 17:49:42;;;;;;;;;;;14.90;99.90;;;;;;4968760;28;19952;-77
2023/09/23 17:52:07;;;;;;;;;;;14.90;99.90;;;;;;4967841;28;19921;-77
2023/09/23 17:54:33;;;;;;;;;;;14.80;99.90;;;;;;4996370;28;19922;-78
2023/09/23 17:56:58;;;;;;;;;;;14.70;99.90;;;;;;4978839;28;20295;-75
2023/09/23 17:59:24;;;;;;;;;;;14.70;99.90;;;;;;4978390;28;20382;-78
2023/09/23 18:01:50;;;;;;;;;;;14.60;99.90;;;;;;4978480;28;19921;-78
2023/09/23 18:04:15;;;;;;;;;;;14.60;99.90;;;;;;4978272;28;19933;-78
2023/09/23 18:06:42;;;;;;;;;;;14.50;99.90;;;;;;4996019;28;19929;-78
2023/09/23 18:09:08;;;;;;;;;;;14.50;99.90;;;;;;4978539;28;19921;-79
2023/09/23 18:11:33;;;;;;;;;;;14.40;99.90;;;;;;4978146;28;20408;-79